Time;durP1;ratioP1;P1;durP2;ratioP2;P2;SDS_P1;SDS_P2;PMS_P1;PMS_P2;Temp;Humidity;BMP_temperature;BMP_pressure;BME280_temperature;BME280_humidity;BME280_pressure;Samples;Min_cycle;Max_cycle;Signal;HPM_P1;HPM_P2
2022/08/23 00:01:34;;;;;;;;;;;;;;;25.57;51.91;98617.91;4456659;32;34369;-83
2022/08/23 00:04:03;;;;;;;;;;;;;;;25.89;50.79;98609.91;4447511;32;34478;-85
2022/08/23 00:06:31;;;;;;;;;;;;;;;26.30;49.68;98610.09;4442295;32;34208;-84
2022/08/23 00:08:58;;;;;;;;;;;;;;;26.22;49.87;98608.84;4448890;32;33503;-83
2022/08/23 00:11:37;;;;;;;;;;;;;;;26.09;50.30;98611.38;4463108;32;34895;-83
2022/08/23 00:14:09;;;;;;;;;;;;;;;25.58;51.53;98606.34;4455235;32;35345;-84
2022/08/23 00:16:37;;;;;;;;;;;;;;;25.46;52.07;98604.41;4465915;32;33892;-85
2022/08/23 00:19:05;;;;;;;;;;;;;;;25.17;52.77;98595.41;4467687;32;33915;-83
2022/08/23 00:21:32;;;;;;;;;;;;;;;24.89;53.75;98603.97;4468560;32;34944;-83
2022/08/23 00:24:00;;;;;;;;;;;;;;;24.63;54.50;98598.31;4440705;32;35167;-83
2022/08/23 00:26:46;;;;;;;;;;;;;;;24.73;54.17;98602.16;4449300;32;35206;-83
2022/08/23 00:29:14;;;;;;;;;;;;;;;25.35;52.51;98598.84;4438607;32;33425;-83
2022/08/23 00:31:42;;;;;;;;;;;;;;;24.62;54.52;98604.53;4450823;32;34324;-83
2022/08/23 00:34:09;;;;;;;;;;;;;;;24.88;53.87;98607.59;4453326;32;35381;-83
2022/08/23 00:36:37;;;;;;;;;;;;;;;24.71;54.26;98600.56;4447435;32;34047;-83
2022/08/23 00:39:04;;;;;;;;;;;;;;;24.99;53.44;98611.34;4462502;32;33679;-83
2022/08/23 00:41:31;;;;;;;;;;;;;;;25.38;52.62;98606.59;4450075;32;35053;-85
2022/08/23 00:49:34;;;;;;;;;;;;;;;25.51;52.03;98612.94;4440277;32;34198;-84
2022/08/23 00:52:01;;;;;;;;;;;;;;;25.63;51.74;98625.50;4443620;32;33991;-85
2022/08/23 00:54:29;;;;;;;;;;;;;;;25.68;51.61;98623.47;4448498;32;34618;-85
2022/08/23 00:56:56;;;;;;;;;;;;;;;25.63;51.68;98624.66;4446678;32;34650;-85
2022/08/23 00:59:24;;;;;;;;;;;;;;;25.29;52.64;98621.25;4452980;32;33892;-86
2022/08/23 01:01:51;;;;;;;;;;;;;;;25.07;53.22;98621.53;4450218;32;34888;-85
2022/08/23 01:04:19;;;;;;;;;;;;;;;25.07;53.27;98626.84;4451196;32;34026;-85
2022/08/23 01:06:49;;;;;;;;;;;;;;;25.55;52.19;98626.88;4447143;32;34116;-86
2022/08/23 01:09:17;;;;;;;;;;;;;;;25.83;51.21;98623.53;4452474;32;32656;-86
2022/08/23 01:11:47;;;;;;;;;;;;;;;25.37;52.43;98624.31;4450238;32;33794;-86
2022/08/23 01:14:16;;;;;;;;;;;;;;;25.48;52.12;98631.69;4441940;32;34254;-84
2022/08/23 01:16:48;;;;;;;;;;;;;;;24.80;54.08;98634.50;4464077;32;34383;-85
2022/08/23 01:19:24;;;;;;;;;;;;;;;25.12;53.35;98629.31;4436096;32;33794;-84
2022/08/23 01:21:52;;;;;;;;;;;;;;;25.37;52.63;98632.28;4453023;32;34865;-86
2022/08/23 01:24:20;;;;;;;;;;;;;;;25.41;52.60;98633.81;4467236;32;33948;-85
2022/08/23 01:27:09;;;;;;;;;;;;;;;25.66;51.95;98630.63;4454415;32;34224;-85
2022/08/23 01:29:38;;;;;;;;;;;;;;;25.15;52.96;98631.75;4449600;32;33693;-85
2022/08/23 01:32:05;;;;;;;;;;;;;;;25.63;51.83;98641.44;4451208;32;34144;-85
2022/08/23 01:34:33;;;;;;;;;;;;;;;25.66;51.85;98640.41;4450209;32;35320;-85
2022/08/23 01:37:03;;;;;;;;;;;;;;;26.00;50.91;98649.97;4450500;32;34191;-84
2022/08/23 01:39:31;;;;;;;;;;;;;;;25.76;51.66;98644.25;4448194;32;33591;-85
2022/08/23 01:41:58;;;;;;;;;;;;;;;26.36;50.10;98643.41;4456735;32;34909;-85
2022/08/23 01:44:25;;;;;;;;;;;;;;;26.36;50.00;98646.06;4468609;32;34445;-85
2022/08/23 01:46:55;;;;;;;;;;;;;;;25.89;51.07;98641.75;4446142;32;35345;-84
2022/08/23 01:49:24;;;;;;;;;;;;;;;26.37;49.73;98653.97;4438013;32;33882;-86
2022/08/23 01:51:51;;;;;;;;;;;;;;;26.62;49.03;98648.03;4441049;32;33647;-85
2022/08/23 01:54:18;;;;;;;;;;;;;;;26.50;49.39;98643.47;4445019;32;34096;-85
2022/08/23 01:56:46;;;;;;;;;;;;;;;26.09;50.50;98654.72;4465784;32;34206;-85
2022/08/23 01:59:14;;;;;;;;;;;;;;;26.40;49.78;98652.91;4437110;32;33267;-85
2022/08/23 02:01:41;;;;;;;;;;;;;;;26.97;48.29;98650.31;4436659;32;34319;-85
2022/08/23 02:04:09;;;;;;;;;;;;;;;26.45;49.64;98645.53;4440610;32;34153;-85
2022/08/23 02:06:37;;;;;;;;;;;;;;;25.47;52.41;98653.88;4467012;32;34462;-84
2022/08/23 02:09:05;;;;;;;;;;;;;;;25.36;52.69;98656.25;4451571;32;33459;-86
2022/08/23 02:11:44;;;;;;;;;;;;;;;25.34;52.91;98656.34;4435754;32;34251;-85
2022/08/23 02:14:13;;;;;;;;;;;;;;;26.12;50.75;98654.56;4437003;32;34463;-85
2022/08/23 02:16:41;;;;;;;;;;;;;;;26.19;50.30;98655.91;4437331;32;35121;-85
2022/08/23 02:19:20;;;;;;;;;;;;;;;25.94;51.16;98660.94;4450037;32;33319;-84
2022/08/23 02:21:47;;;;;;;;;;;;;;;26.10;50.95;98660.88;4463508;32;33854;-84
2022/08/23 02:24:16;;;;;;;;;;;;;;;26.43;50.03;98661.53;4459121;32;35267;-85
2022/08/23 02:26:45;;;;;;;;;;;;;;;26.31;49.95;98658.78;4450588;32;34314;-85
2022/08/23 02:29:13;;;;;;;;;;;;;;;26.49;49.42;98662.19;4452522;32;33194;-85
2022/08/23 02:31:42;;;;;;;;;;;;;;;26.14;50.68;98668.63;4452432;32;33236;-85
2022/08/23 02:34:10;;;;;;;;;;;;;;;26.12;50.79;98670.50;4452110;32;34424;-84
2022/08/23 02:36:57;;;;;;;;;;;;;;;25.90;51.32;98670.88;4461549;32;34501;-84
2022/08/23 02:39:24;;;;;;;;;;;;;;;26.45;49.85;98669.44;4452410;32;33433;-85
2022/08/23 02:41:52;;;;;;;;;;;;;;;26.03;50.89;98673.69;4452289;32;35248;-85
2022/08/23 02:44:20;;;;;;;;;;;;;;;26.21;50.59;98679.72;4452511;32;34477;-85
2022/08/23 02:46:49;;;;;;;;;;;;;;;26.47;49.91;98677.34;4449964;32;34415;-85
2022/08/23 02:49:16;;;;;;;;;;;;;;;26.27;50.48;98684.69;4441824;32;33573;-84
2022/08/23 02:51:44;;;;;;;;;;;;;;;26.68;49.50;98679.56;4452380;32;34626;-85
2022/08/23 02:54:12;;;;;;;;;;;;;;;26.82;49.18;98681.41;4452179;32;34460;-83
2022/08/23 02:56:39;;;;;;;;;;;;;;;26.92;48.58;98679.84;4452022;32;34488;-84
2022/08/23 02:59:07;;;;;;;;;;;;;;;27.46;47.11;98680.97;4436842;32;33161;-84
2022/08/23 03:01:35;;;;;;;;;;;;;;;27.11;48.07;98695.56;4436762;32;34691;-85
2022/08/23 03:04:04;;;;;;;;;;;;;;;27.08;48.04;98694.88;4436647;32;34280;-84
2022/08/23 03:06:33;;;;;;;;;;;;;;;26.72;49.05;98696.19;4435462;32;33959;-84
2022/08/23 03:09:00;;;;;;;;;;;;;;;26.97;48.53;98694.69;4451107;32;34546;-84
2022/08/23 03:11:28;;;;;;;;;;;;;;;26.99;48.45;98698.97;4452396;32;34393;-84
2022/08/23 03:13:56;;;;;;;;;;;;;;;26.73;49.19;98705.03;4452196;32;34118;-85
2022/08/23 03:16:24;;;;;;;;;;;;;;;26.52;49.77;98701.84;4452130;32;34381;-86
2022/08/23 03:18:51;;;;;;;;;;;;;;;26.36;50.24;98699.22;4437887;32;34242;-84
2022/08/23 03:21:19;;;;;;;;;;;;;;;26.43;50.14;98700.56;4436393;32;34992;-84
2022/08/23 03:23:47;;;;;;;;;;;;;;;26.68;49.35;98700.84;4435413;32;34000;-85
2022/08/23 03:26:15;;;;;;;;;;;;;;;26.76;49.28;98696.88;4435311;32;33827;-84
2022/08/23 03:28:43;;;;;;;;;;;;;;;26.71;49.35;98709.56;4449149;32;34519;-84
2022/08/23 03:31:11;;;;;;;;;;;;;;;26.43;50.17;98712.03;4450400;32;35014;-85
2022/08/23 03:33:38;;;;;;;;;;;;;;;26.18;50.71;98712.66;4450969;32;33891;-85
2022/08/23 03:36:07;;;;;;;;;;;;;;;26.46;50.02;98713.72;4448498;32;34153;-85
2022/08/23 03:38:34;;;;;;;;;;;;;;;26.61;49.59;98715.44;4436324;32;34300;-84
2022/08/23 03:41:02;;;;;;;;;;;;;;;27.16;48.00;98717.44;4436641;32;34821;-86
2022/08/23 03:43:29;;;;;;;;;;;;;;;26.95;48.60;98718.72;4435081;32;34402;-85
2022/08/23 03:45:57;;;;;;;;;;;;;;;26.77;49.22;98719.84;4436621;32;35368;-84
2022/08/23 03:48:24;;;;;;;;;;;;;;;26.87;49.05;98715.69;4451627;32;33682;-85
2022/08/23 03:50:52;;;;;;;;;;;;;;;27.09;48.39;98726.72;4451798;32;33969;-84
2022/08/23 03:53:22;;;;;;;;;;;;;;;26.59;49.66;98730.63;4451197;32;32840;-86
2022/08/23 03:55:53;;;;;;;;;;;;;;;27.04;48.72;98719.97;4451385;32;34633;-85
2022/08/23 03:58:20;;;;;;;;;;;;;;;26.88;48.84;98723.56;4436199;32;32884;-85
2022/08/23 04:00:47;;;;;;;;;;;;;;;26.94;48.83;98730.31;4436046;32;33739;-85
2022/08/23 04:03:15;;;;;;;;;;;;;;;26.80;49.12;98725.84;4436218;32;34962;-83
2022/08/23 04:05:45;;;;;;;;;;;;;;;26.91;48.97;98727.84;4436157;32;34608;-86
2022/08/23 04:08:13;;;;;;;;;;;;;;;26.96;48.77;98732.88;4436037;32;33684;-85
2022/08/23 04:10:44;;;;;;;;;;;;;;;26.50;49.94;98744.47;4436197;32;34235;-85
2022/08/23 04:13:11;;;;;;;;;;;;;;;26.69;49.37;98747.75;4456655;32;34460;-85
2022/08/23 04:15:39;;;;;;;;;;;;;;;26.81;49.25;98751.47;4466893;32;34257;-84
2022/08/23 04:18:09;;;;;;;;;;;;;;;26.86;49.05;98746.75;4451805;32;34387;-84
2022/08/23 04:20:37;;;;;;;;;;;;;;;26.13;50.94;98749.25;4451538;32;33994;-85
2022/08/23 04:23:04;;;;;;;;;;;;;;;26.84;49.16;98750.44;4446334;32;35068;-85
2022/08/23 04:25:32;;;;;;;;;;;;;;;26.71;49.54;98738.81;4435949;32;34462;-85
2022/08/23 04:28:02;;;;;;;;;;;;;;;26.84;49.13;98742.47;4435924;32;33293;-86
2022/08/23 04:30:31;;;;;;;;;;;;;;;27.09;48.49;98747.16;4435606;32;34228;-84
2022/08/23 04:32:58;;;;;;;;;;;;;;;26.79;49.25;98744.56;4438846;32;35377;-83
2022/08/23 04:35:28;;;;;;;;;;;;;;;26.84;49.24;98747.78;4451407;32;35245;-84
2022/08/23 04:37:56;;;;;;;;;;;;;;;26.62;49.86;98743.75;4451361;32;33450;-85
2022/08/23 04:43:09;;;;;;;;;;;;;;;26.66;49.63;98741.75;4440756;32;34830;-84
2022/08/23 04:45:39;;;;;;;;;;;;;;;26.80;49.27;98746.25;4435399;32;34355;-84
2022/08/23 04:48:08;;;;;;;;;;;;;;;26.87;49.17;98744.94;4435511;32;32735;-85
2022/08/23 04:50:40;;;;;;;;;;;;;;;26.36;50.37;98752.38;4435425;32;34297;-85
2022/08/23 04:53:08;;;;;;;;;;;;;;;26.37;50.49;98752.31;4444763;32;34989;-85
2022/08/23 04:55:36;;;;;;;;;;;;;;;26.50;50.23;98752.44;4450955;32;34308;-86
2022/08/23 04:58:04;;;;;;;;;;;;;;;26.27;50.79;98751.09;4450984;32;34298;-85
2022/08/23 05:00:32;;;;;;;;;;;;;;;26.48;50.38;98758.81;4450699;32;34254;-85
2022/08/23 05:03:01;;;;;;;;;;;;;;;26.94;48.78;98748.94;4442050;32;35180;-85
2022/08/23 05:05:28;;;;;;;;;;;;;;;26.37;50.42;98756.75;4437475;32;35066;-85
2022/08/23 05:07:55;;;;;;;;;;;;;;;26.64;49.73;98768.44;4437606;32;34526;-86
2022/08/23 05:10:23;;;;;;;;;;;;;;;25.80;51.95;98769.75;4437613;32;34285;-85
2022/08/23 05:12:51;;;;;;;;;;;;;;;25.02;54.41;98785.38;4445423;32;34289;-85
2022/08/23 05:15:19;;;;;;;;;;;;;;;24.34;56.43;98784.41;4447470;32;35083;-84
2022/08/23 05:17:46;;;;;;;;;;;;;;;25.41;53.53;98778.94;4437709;32;34468;-86
2022/08/23 05:20:15;;;;;;;;;;;;;;;25.18;54.30;98782.81;4437502;32;34711;-86
2022/08/23 05:22:43;;;;;;;;;;;;;;;25.65;52.76;98780.25;4443985;32;34251;-86
2022/08/23 05:25:11;;;;;;;;;;;;;;;26.08;51.58;98788.50;4451860;32;33900;-86
2022/08/23 05:27:38;;;;;;;;;;;;;;;26.20;51.34;98784.28;4451592;32;35285;-86
2022/08/23 05:30:06;;;;;;;;;;;;;;;25.98;51.73;98783.78;4452498;32;33711;-85
2022/08/23 05:32:33;;;;;;;;;;;;;;;26.54;50.14;98782.37;4446394;32;34067;-84
2022/08/23 05:35:01;;;;;;;;;;;;;;;26.37;50.68;98792.16;4436195;32;34027;-85
2022/08/23 05:37:29;;;;;;;;;;;;;;;26.30;50.87;98782.84;4437382;32;33792;-85
2022/08/23 05:39:56;;;;;;;;;;;;;;;26.46;50.36;98785.47;4437167;32;34256;-84
2022/08/23 05:42:24;;;;;;;;;;;;;;;26.80;49.38;98794.13;4440595;32;34108;-85
2022/08/23 05:44:51;;;;;;;;;;;;;;;26.90;49.10;98800.62;4452630;32;35129;-86
2022/08/23 05:47:20;;;;;;;;;;;;;;;26.72;49.85;98807.03;4452835;32;34271;-86
2022/08/23 05:49:51;;;;;;;;;;;;;;;26.71;50.07;98802.63;4452674;32;35071;-86
2022/08/23 05:52:19;;;;;;;;;;;;;;;26.38;50.73;98811.63;4452092;32;33932;-86
2022/08/23 05:54:46;;;;;;;;;;;;;;;26.26;51.10;98804.34;4446193;32;34538;-86
2022/08/23 05:57:14;;;;;;;;;;;;;;;26.24;51.35;98811.53;4452766;32;33974;-86
2022/08/23 05:59:42;;;;;;;;;;;;;;;26.31;51.24;98818.22;4452654;32;34052;-86
2022/08/23 06:02:09;;;;;;;;;;;;;;;26.15;51.75;98824.41;4450492;32;34477;-85
2022/08/23 06:04:36;;;;;;;;;;;;;;;26.31;51.28;98831.53;4437325;32;33907;-85
2022/08/23 06:07:05;;;;;;;;;;;;;;;26.63;50.38;98830.56;4437176;32;33550;-86
2022/08/23 06:09:32;;;;;;;;;;;;;;;26.69;50.17;98832.84;4437231;32;35008;-85
2022/08/23 06:12:00;;;;;;;;;;;;;;;26.60;50.41;98833.41;4437306;32;35425;-85
2022/08/23 06:14:27;;;;;;;;;;;;;;;26.67;50.21;98832.09;4452315;32;33968;-85
2022/08/23 06:16:55;;;;;;;;;;;;;;;27.09;49.35;98838.47;4452572;32;34044;-85
2022/08/23 06:19:23;;;;;;;;;;;;;;;27.26;49.03;98833.97;4452734;32;34994;-84
2022/08/23 06:21:54;;;;;;;;;;;;;;;27.24;48.90;98836.72;4452378;32;35798;-85
2022/08/23 06:24:22;;;;;;;;;;;;;;;27.27;49.05;98841.84;4436710;32;35174;-86
2022/08/23 06:26:50;;;;;;;;;;;;;;;27.09;49.44;98841.13;4437080;32;33817;-86
2022/08/23 06:29:17;;;;;;;;;;;;;;;27.63;48.14;98841.41;4437268;32;34242;-85
2022/08/23 06:31:47;;;;;;;;;;;;;;;27.50;48.47;98845.75;4437018;32;34320;-85
2022/08/23 06:34:23;;;;;;;;;;;;;;;27.55;48.09;98845.50;4435414;32;35195;-86
2022/08/23 06:36:56;;;;;;;;;;;;;;;27.64;48.12;98845.75;4435703;32;34460;-85
2022/08/23 06:39:27;;;;;;;;;;;;;;;27.77;47.36;98845.91;4436687;32;34006;-85
2022/08/23 06:41:57;;;;;;;;;;;;;;;27.48;48.38;98854.81;4436812;32;34451;-84
2022/08/23 06:44:24;;;;;;;;;;;;;;;27.37;48.72;98858.97;4446027;32;32998;-86
2022/08/23 06:46:52;;;;;;;;;;;;;;;27.91;47.45;98853.00;4436526;32;33463;-86
2022/08/23 06:49:20;;;;;;;;;;;;;;;27.75;47.73;98857.59;4435443;32;35093;-85
2022/08/23 06:51:48;;;;;;;;;;;;;;;27.96;47.23;98858.91;4436675;32;34118;-86
2022/08/23 06:54:18;;;;;;;;;;;;;;;27.99;47.25;98856.03;4435496;32;34323;-85
2022/08/23 06:56:46;;;;;;;;;;;;;;;27.85;47.61;98864.91;4435783;32;33367;-85
2022/08/23 06:59:13;;;;;;;;;;;;;;;27.92;47.47;98865.41;4436632;32;33956;-85
2022/08/23 07:01:47;;;;;;;;;;;;;;;27.32;49.13;98873.53;4435255;32;35276;-85
2022/08/23 07:04:19;;;;;;;;;;;;;;;27.86;47.65;98871.09;4436822;32;34301;-85
2022/08/23 07:06:50;;;;;;;;;;;;;;;27.44;48.82;98878.09;4436344;32;32608;-84
2022/08/23 07:09:17;;;;;;;;;;;;;;;27.62;48.54;98874.31;4435822;32;32768;-85
2022/08/23 07:11:45;;;;;;;;;;;;;;;27.36;49.50;98872.37;4435852;32;34313;-85
2022/08/23 07:14:15;;;;;;;;;;;;;;;27.55;49.27;98878.31;4434603;32;34223;-85
2022/08/23 07:16:44;;;;;;;;;;;;;;;27.58;49.36;98874.59;4436123;32;33739;-85
2022/08/23 07:19:12;;;;;;;;;;;;;;;28.07;48.03;98871.53;4436521;32;34023;-85
2022/08/23 07:21:40;;;;;;;;;;;;;;;28.03;48.04;98881.53;4436427;32;35188;-86
2022/08/23 07:24:08;;;;;;;;;;;;;;;28.32;47.12;98873.50;4436534;32;33885;-86
2022/08/23 07:26:35;;;;;;;;;;;;;;;28.43;47.13;98873.69;4435228;32;33098;-86
2022/08/23 07:29:03;;;;;;;;;;;;;;;27.85;48.50;98883.56;4447487;32;33932;-85
2022/08/23 07:31:33;;;;;;;;;;;;;;;28.21;47.92;98876.00;4451974;32;33990;-85
2022/08/23 07:34:01;;;;;;;;;;;;;;;28.48;47.53;98882.22;4450572;32;34394;-86
2022/08/23 07:36:30;;;;;;;;;;;;;;;27.41;50.02;98892.44;4451945;32;33376;-85
2022/08/23 07:38:57;;;;;;;;;;;;;;;27.52;49.56;98886.47;4439694;32;34857;-86
2022/08/23 07:41:30;;;;;;;;;;;;;;;27.77;49.56;98882.31;4435387;32;34466;-85
2022/08/23 07:44:02;;;;;;;;;;;;;;;27.75;49.59;98886.91;4436591;32;34351;-85
2022/08/23 07:46:30;;;;;;;;;;;;;;;28.06;49.10;98885.81;4436632;32;33695;-86
2022/08/23 07:48:58;;;;;;;;;;;;;;;28.56;47.99;98890.59;4443362;32;34248;-86
2022/08/23 07:51:26;;;;;;;;;;;;;;;28.16;48.39;98894.94;4449473;32;34548;-86
2022/08/23 07:53:54;;;;;;;;;;;;;;;28.70;46.42;98889.69;4436394;32;35363;-86
2022/08/23 07:56:21;;;;;;;;;;;;;;;28.45;47.05;98893.13;4447569;32;33245;-86
2022/08/23 07:58:51;;;;;;;;;;;;;;;28.72;46.91;98893.13;4446645;32;34097;-86
2022/08/23 08:01:21;;;;;;;;;;;;;;;28.60;47.10;98902.78;4442346;32;34398;-85
2022/08/23 08:03:51;;;;;;;;;;;;;;;28.10;47.77;98901.50;4448183;32;34172;-86
2022/08/23 08:06:23;;;;;;;;;;;;;;;28.06;46.95;98900.00;4449354;32;34177;-86
2022/08/23 08:08:50;;;;;;;;;;;;;;;28.72;45.97;98897.59;4435353;32;33976;-85
2022/08/23 08:11:19;;;;;;;;;;;;;;;28.76;46.37;98896.44;4453598;32;35061;-84
2022/08/23 08:13:47;;;;;;;;;;;;;;;28.54;45.83;98889.84;4448549;32;34953;-85
2022/08/23 08:16:26;;;;;;;;;;;;;;;29.29;45.13;98892.00;4450236;32;33635;-86
2022/08/23 08:18:54;;;;;;;;;;;;;;;29.42;45.57;98892.84;4451338;32;34991;-84
2022/08/23 08:21:26;;;;;;;;;;;;;;;28.07;47.43;98896.41;4445073;32;33806;-85
2022/08/23 08:23:55;;;;;;;;;;;;;;;28.84;45.22;98899.44;4434619;32;34205;-85
2022/08/23 08:26:25;;;;;;;;;;;;;;;29.20;44.75;98901.47;4436182;32;33766;-83
2022/08/23 08:28:54;;;;;;;;;;;;;;;29.16;43.30;98902.63;4439710;32;33964;-83
2022/08/23 08:31:23;;;;;;;;;;;;;;;28.99;42.92;98901.13;4446601;32;34864;-84
2022/08/23 08:33:50;;;;;;;;;;;;;;;28.12;44.60;98904.94;4443483;32;34554;-85
2022/08/23 08:36:34;;;;;;;;;;;;;;;28.44;45.77;98907.38;4449612;32;33762;-86
2022/08/23 08:39:03;;;;;;;;;;;;;;;29.02;45.20;98918.75;4438400;32;35391;-83
2022/08/23 08:41:39;;;;;;;;;;;;;;;27.83;46.40;98919.22;4438558;32;34976;-84
2022/08/23 08:44:07;;;;;;;;;;;;;;;28.45;45.64;98921.56;4448563;32;34475;-85
2022/08/23 08:46:38;;;;;;;;;;;;;;;28.41;45.15;98926.25;4446305;32;34487;-83
2022/08/23 08:49:05;;;;;;;;;;;;;;;28.40;44.71;98916.53;4451007;32;34803;-83
2022/08/23 08:51:39;;;;;;;;;;;;;;;28.50;44.91;98925.66;4467895;32;33869;-84
2022/08/23 08:54:07;;;;;;;;;;;;;;;28.23;44.89;98928.25;4438181;32;35463;-86
2022/08/23 08:56:36;;;;;;;;;;;;;;;29.16;42.57;98920.47;4450374;32;33544;-86
2022/08/23 08:59:05;;;;;;;;;;;;;;;29.42;41.70;98921.38;4452080;32;34183;-87
2022/08/23 09:01:34;;;;;;;;;;;;;;;29.46;42.04;98925.53;4446240;32;34050;-85
2022/08/23 09:04:02;;;;;;;;;;;;;;;29.56;42.35;98922.12;4436838;32;34316;-84
2022/08/23 09:06:35;;;;;;;;;;;;;;;29.98;40.98;98922.78;4450150;32;33296;-84
2022/08/23 09:09:09;;;;;;;;;;;;;;;29.21;41.88;98929.03;4451612;32;33990;-85
2022/08/23 09:11:55;;;;;;;;;;;;;;;29.50;41.11;98924.38;4437588;32;33869;-86
2022/08/23 09:14:36;;;;;;;;;;;;;;;28.82;43.10;98926.22;4437499;32;34231;-86
2022/08/23 09:17:05;;;;;;;;;;;;;;;28.66;44.29;98930.00;4443061;32;34476;-85
2022/08/23 09:19:33;;;;;;;;;;;;;;;27.39;45.29;98936.09;4444007;32;33977;-87
2022/08/23 09:22:03;;;;;;;;;;;;;;;28.65;43.86;98928.31;4451604;32;34775;-86
2022/08/23 09:24:31;;;;;;;;;;;;;;;27.67;45.12;98929.09;4452637;32;34590;-87
2022/08/23 09:26:59;;;;;;;;;;;;;;;27.87;46.19;98926.94;4452176;32;33904;-85
2022/08/23 09:29:32;;;;;;;;;;;;;;;27.60;44.76;98931.28;4451338;32;33859;-86
2022/08/23 09:32:01;;;;;;;;;;;;;;;29.29;42.18;98929.38;4451387;32;34424;-86
2022/08/23 09:34:29;;;;;;;;;;;;;;;27.28;46.88;98939.41;4451618;32;35023;-83
2022/08/23 09:37:16;;;;;;;;;;;;;;;28.44;43.95;98935.88;4452319;32;34019;-83
2022/08/23 09:39:49;;;;;;;;;;;;;;;28.47;43.55;98939.19;4452739;32;33687;-86
2022/08/23 09:42:31;;;;;;;;;;;;;;;28.88;42.63;98932.97;4451681;32;35179;-84
2022/08/23 09:44:59;;;;;;;;;;;;;;;29.15;42.07;98938.31;4451453;32;34251;-84
2022/08/23 09:47:31;;;;;;;;;;;;;;;29.36;41.18;98933.34;4448886;32;34306;-83
2022/08/23 09:50:06;;;;;;;;;;;;;;;29.91;39.94;98937.56;4447460;32;34970;-85
2022/08/23 09:52:35;;;;;;;;;;;;;;;29.63;40.00;98941.31;4457461;32;35153;-84
2022/08/23 09:55:04;;;;;;;;;;;;;;;30.19;39.55;98931.16;4440442;32;34465;-85
2022/08/23 09:57:32;;;;;;;;;;;;;;;30.18;39.59;98931.25;4436361;32;34403;-83
2022/08/23 10:00:20;;;;;;;;;;;;;;;30.22;39.69;98927.37;4437319;32;34187;-84
2022/08/23 10:02:49;;;;;;;;;;;;;;;30.08;40.02;98938.16;4431464;32;33790;-84
2022/08/23 10:05:17;;;;;;;;;;;;;;;30.27;39.13;98927.94;4437205;32;35039;-84
2022/08/23 10:07:53;;;;;;;;;;;;;;;29.31;41.14;98927.44;4438064;32;34404;-84
2022/08/23 10:10:24;;;;;;;;;;;;;;;30.41;39.42;98924.22;4437268;32;34320;-84
2022/08/23 10:12:53;;;;;;;;;;;;;;;29.41;41.60;98928.53;4441720;32;34021;-84
2022/08/23 10:15:23;;;;;;;;;;;;;;;29.11;41.35;98930.62;4450928;32;34416;-85
2022/08/23 10:17:53;;;;;;;;;;;;;;;29.64;40.44;98926.13;4450356;32;33671;-85
2022/08/23 10:20:21;;;;;;;;;;;;;;;29.70;40.90;98931.03;4452681;32;34141;-85
2022/08/23 10:23:18;;;;;;;;;;;;;;;28.35;42.39;98930.12;4452334;32;34823;-83
2022/08/23 10:25:58;;;;;;;;;;;;;;;28.02;42.75;98940.25;4423235;32;34228;-84
2022/08/23 10:31:41;;;;;;;;;;;;;;;29.32;42.38;98935.38;4451020;32;34284;-83
2022/08/23 10:34:17;;;;;;;;;;;;;;;29.68;40.79;98927.63;4452608;32;34531;-83
2022/08/23 10:36:56;;;;;;;;;;;;;;;30.15;39.73;98929.59;4451994;32;35691;-83
2022/08/23 10:39:28;;;;;;;;;;;;;;;30.24;38.40;98928.13;4436712;32;34194;-83
2022/08/23 10:42:10;;;;;;;;;;;;;;;29.63;40.15;98935.97;4437256;32;34983;-83
2022/08/23 10:44:43;;;;;;;;;;;;;;;29.78;39.77;98928.69;4435424;32;34621;-84
2022/08/23 10:47:36;;;;;;;;;;;;;;;29.54;39.87;98929.38;4438025;32;35072;-84
2022/08/23 10:50:06;;;;;;;;;;;;;;;30.23;39.31;98926.41;4448230;32;34013;-84
2022/08/23 10:52:37;;;;;;;;;;;;;;;30.68;39.07;98929.38;4450762;32;33826;-84
2022/08/23 10:55:16;;;;;;;;;;;;;;;30.52;39.50;98932.31;4451017;32;35157;-84
2022/08/23 10:57:44;;;;;;;;;;;;;;;30.43;39.85;98928.50;4445188;32;34050;-83
2022/08/23 11:00:21;;;;;;;;;;;;;;;29.79;40.72;98938.41;4436740;32;34402;-83
2022/08/23 11:02:51;;;;;;;;;;;;;;;30.39;39.79;98929.72;4435480;32;34843;-84
2022/08/23 11:05:19;;;;;;;;;;;;;;;29.68;41.31;98946.31;4435456;32;34298;-85
2022/08/23 11:08:02;;;;;;;;;;;;;;;29.54;41.85;98940.06;4442721;32;34281;-84
2022/08/23 11:10:33;;;;;;;;;;;;;;;29.19;41.00;98933.63;4452451;32;33465;-84
2022/08/23 11:13:02;;;;;;;;;;;;;;;29.39;41.69;98934.94;4450876;32;34084;-85
2022/08/23 11:15:46;;;;;;;;;;;;;;;29.61;41.09;98934.34;4450980;32;33970;-85
2022/08/23 11:18:32;;;;;;;;;;;;;;;29.48;41.58;98929.84;4444746;32;35118;-85
2022/08/23 11:21:00;;;;;;;;;;;;;;;29.88;41.39;98932.41;4441301;32;34523;-86
2022/08/23 11:23:41;;;;;;;;;;;;;;;29.63;41.81;98937.78;4436866;32;34236;-85
2022/08/23 11:26:36;;;;;;;;;;;;;;;29.39;42.13;98933.13;4436566;32;35093;-85
2022/08/23 11:29:06;;;;;;;;;;;;;;;29.73;42.21;98933.50;4429754;32;34593;-85
2022/08/23 11:31:39;;;;;;;;;;;;;;;29.45;42.32;98930.03;4451568;32;33828;-85
2022/08/23 11:34:20;;;;;;;;;;;;;;;29.72;42.00;98931.78;4450620;32;34305;-85
2022/08/23 11:37:15;;;;;;;;;;;;;;;30.00;41.51;98936.03;4450923;32;34253;-85
2022/08/23 11:40:01;;;;;;;;;;;;;;;30.33;40.33;98921.25;4447112;32;35227;-85
2022/08/23 11:42:36;;;;;;;;;;;;;;;30.20;40.19;98924.84;4435345;32;34496;-87
2022/08/23 11:45:22;;;;;;;;;;;;;;;28.97;42.64;98924.34;4436293;32;34278;-85
2022/08/23 11:48:02;;;;;;;;;;;;;;;29.71;41.50;98930.09;4436359;32;35262;-85
2022/08/23 11:50:48;;;;;;;;;;;;;;;29.58;41.80;98935.41;4443362;32;34008;-85
2022/08/23 11:53:42;;;;;;;;;;;;;;;29.94;40.84;98934.66;4442258;32;33327;-85
2022/08/23 11:56:09;;;;;;;;;;;;;;;30.38;40.17;98930.66;4451708;32;34155;-86
2022/08/23 11:58:53;;;;;;;;;;;;;;;30.02;41.34;98934.13;4451358;32;34417;-88
2022/08/23 12:01:35;;;;;;;;;;;;;;;30.19;41.35;98930.28;4450414;32;34239;-87
2022/08/23 12:04:09;;;;;;;;;;;;;;;30.31;41.54;98929.41;4449656;32;35072;-88
2022/08/23 12:06:47;;;;;;;;;;;;;;;30.50;40.48;98929.78;4437079;32;35005;-88
2022/08/23 12:09:23;;;;;;;;;;;;;;;30.83;39.19;98930.94;4436097;32;34049;-88
2022/08/23 12:11:56;;;;;;;;;;;;;;;30.48;40.11;98937.03;4436017;32;33957;-86
2022/08/23 12:14:29;;;;;;;;;;;;;;;30.70;40.50;98927.47;4446826;32;34389;-86
2022/08/23 12:16:57;;;;;;;;;;;;;;;30.23;40.47;98931.75;4441206;32;33690;-85
2022/08/23 12:19:36;;;;;;;;;;;;;;;30.73;40.05;98930.75;4439643;32;34394;-87
2022/08/23 12:22:16;;;;;;;;;;;;;;;30.52;40.76;98933.19;4452075;32;34328;-86
2022/08/23 12:24:56;;;;;;;;;;;;;;;30.27;40.59;98927.94;4440792;32;33444;-88
2022/08/23 12:27:33;;;;;;;;;;;;;;;30.29;40.84;98926.81;4452476;32;34035;-86
2022/08/23 12:30:09;;;;;;;;;;;;;;;30.57;40.72;98935.50;4454326;32;33849;-87
2022/08/23 12:32:39;;;;;;;;;;;;;;;30.91;40.15;98933.94;4450713;32;34084;-85
2022/08/23 12:35:25;;;;;;;;;;;;;;;29.94;41.65;98941.84;4442617;32;33633;-85
2022/08/23 12:38:11;;;;;;;;;;;;;;;30.29;40.62;98932.19;4445757;32;34189;-84
2022/08/23 12:40:42;;;;;;;;;;;;;;;30.73;40.56;98924.56;4455307;32;34389;-83
2022/08/23 12:43:10;;;;;;;;;;;;;;;30.01;41.05;98943.97;4455960;32;34948;-83
2022/08/23 12:45:49;;;;;;;;;;;;;;;30.34;40.20;98934.50;4456027;32;34668;-84
2022/08/23 12:48:19;;;;;;;;;;;;;;;30.25;40.95;98937.88;4452717;32;33720;-83
2022/08/23 12:51:01;;;;;;;;;;;;;;;30.57;39.63;98932.84;4440361;32;34089;-83
2022/08/23 12:53:30;;;;;;;;;;;;;;;30.19;40.06;98938.28;4439914;32;35391;-83
2022/08/23 12:56:02;;;;;;;;;;;;;;;30.61;39.31;98941.50;4422558;32;783056;-83
2022/08/23 12:58:30;;;;;;;;;;;;;;;30.61;39.69;98941.50;4454323;32;35001;-83
2022/08/23 13:01:01;;;;;;;;;;;;;;;30.71;39.43;98942.53;4455883;32;34109;-83
2022/08/23 13:03:33;;;;;;;;;;;;;;;30.35;40.25;98936.25;4454652;32;34470;-83
2022/08/23 13:06:01;;;;;;;;;;;;;;;30.60;39.98;98945.16;4445694;32;33426;-83
2022/08/23 13:08:40;;;;;;;;;;;;;;;29.85;42.48;98953.16;4439087;32;34989;-84
2022/08/23 13:11:07;;;;;;;;;;;;;;;29.99;42.36;98947.69;4440343;32;34402;-84
2022/08/23 13:13:39;;;;;;;;;;;;;;;30.20;42.75;98945.38;4439302;32;34303;-83
2022/08/23 13:16:41;;;;;;;;;;;;;;;29.26;44.55;98950.94;4438761;32;33042;-83
2022/08/23 13:19:29;;;;;;;;;;;;;;;29.54;43.93;98947.22;4410131;32;33677;-84